createdAt,value
2018-12-16T00:03:57.315Z,11.60
2018-12-16T00:09:00.608Z,11.17
2018-12-16T00:14:04.082Z,11.50
2018-12-16T00:19:07.429Z,12.20
2018-12-16T00:24:10.699Z,11.83
2018-12-16T00:29:13.287Z,10.17
2018-12-16T00:34:16.556Z,11.70
2018-12-16T00:39:19.779Z,11.80
2018-12-16T00:44:23.027Z,10.93
2018-12-16T00:49:26.250Z,11.93
2018-12-16T00:54:29.474Z,13.00
2018-12-16T00:59:32.714Z,10.70
2018-12-16T01:04:35.942Z,11.67
2018-12-16T01:09:39.242Z,10.90
2018-12-16T01:14:42.489Z,9.90
2018-12-16T01:19:45.803Z,11.23
2018-12-16T01:24:49.043Z,13.03
2018-12-16T01:29:52.250Z,11.67
2018-12-16T01:34:55.539Z,11.23
2018-12-16T01:39:58.801Z,12.27
2018-12-16T01:45:02.175Z,13.13
2018-12-16T01:50:05.632Z,11.57
2018-12-16T01:55:09.238Z,12.60
2018-12-16T02:00:12.739Z,11.03
2018-12-16T02:05:16.013Z,11.97
2018-12-16T02:10:19.390Z,11.40
2018-12-16T02:15:22.778Z,11.20
2018-12-16T02:20:26.063Z,11.83
2018-12-16T02:25:29.337Z,11.23
2018-12-16T02:30:32.635Z,12.83
2018-12-16T02:35:35.890Z,12.80
2018-12-16T02:40:39.201Z,12.60
2018-12-16T02:45:42.429Z,12.80
2018-12-16T02:50:45.640Z,13.30
2018-12-16T02:55:48.849Z,11.83
2018-12-16T03:00:52.179Z,12.43
2018-12-16T03:05:55.411Z,12.23
2018-12-16T03:10:58.695Z,12.07
2018-12-16T03:16:01.950Z,12.83
2018-12-16T03:21:05.193Z,11.83
2018-12-16T03:26:08.453Z,12.40
2018-12-16T03:31:11.787Z,12.87
2018-12-16T03:36:15.009Z,12.20
2018-12-16T03:41:18.226Z,13.60
2018-12-16T03:46:21.476Z,13.90
2018-12-16T03:51:24.706Z,12.13
2018-12-16T03:56:27.951Z,13.73
2018-12-16T04:06:33.698Z,12.10
2018-12-16T04:11:36.928Z,12.83
2018-12-16T04:16:40.351Z,14.73
2018-12-16T04:21:43.615Z,13.10
2018-12-16T04:26:46.959Z,14.77
2018-12-16T04:31:50.265Z,14.90
2018-12-16T04:36:53.494Z,14.13
2018-12-16T04:41:56.750Z,13.67
2018-12-16T04:46:59.979Z,13.20
2018-12-16T04:52:03.296Z,12.53
2018-12-16T04:57:06.620Z,14.90
2018-12-16T05:02:09.943Z,15.07
2018-12-16T05:07:13.202Z,13.13
2018-12-16T05:12:16.511Z,13.97
2018-12-16T05:17:19.760Z,15.13
2018-12-16T05:22:23.006Z,12.73
2018-12-16T05:27:26.259Z,14.40
2018-12-16T05:32:29.486Z,14.00
2018-12-16T05:37:32.719Z,13.70
2018-12-16T05:42:36.034Z,14.47
2018-12-16T05:47:39.271Z,14.13
2018-12-16T05:52:42.502Z,13.37
2018-12-16T05:57:45.743Z,13.63
2018-12-16T06:02:48.978Z,14.90
2018-12-16T06:07:52.220Z,15.67
2018-12-16T06:12:55.457Z,13.10
2018-12-16T06:17:58.693Z,13.97
2018-12-16T06:23:01.965Z,14.20
2018-12-16T06:28:06.309Z,14.37
2018-12-16T06:33:09.642Z,12.83
2018-12-16T06:38:12.871Z,13.83
2018-12-16T06:43:16.198Z,14.10
2018-12-16T06:48:19.431Z,15.13
2018-12-16T06:53:22.657Z,15.27
2018-12-16T06:58:25.897Z,16.53
2018-12-16T07:03:29.150Z,15.70
2018-12-16T07:08:32.367Z,14.60
2018-12-16T07:13:35.603Z,17.00
2018-12-16T07:18:38.937Z,15.90
2018-12-16T07:23:42.232Z,16.10
2018-12-16T07:28:45.582Z,14.17
2018-12-16T07:33:48.897Z,15.33
2018-12-16T07:38:52.160Z,17.73
2018-12-16T07:43:55.519Z,15.87
2018-12-16T07:48:58.899Z,16.13
2018-12-16T07:54:02.196Z,10.93
2018-12-16T07:59:05.576Z,16.77
2018-12-16T08:04:09.210Z,24.00
2018-12-16T08:09:12.748Z,20.43
2018-12-16T08:14:15.999Z,20.10
2018-12-16T08:19:19.314Z,18.03
2018-12-16T08:24:23.331Z,16.50
2018-12-16T08:29:26.674Z,17.83
2018-12-16T08:34:29.955Z,17.60
2018-12-16T08:39:33.233Z,21.80
2018-12-16T08:44:36.462Z,19.90
2018-12-16T08:49:39.710Z,16.43
2018-12-16T08:54:42.941Z,17.80
2018-12-16T08:59:46.329Z,16.80
2018-12-16T09:04:49.568Z,17.17
2018-12-16T09:09:52.804Z,15.97
2018-12-16T09:14:56.042Z,17.20
2018-12-16T09:19:59.396Z,16.53
2018-12-16T09:25:02.743Z,16.00
2018-12-16T09:30:08.438Z,15.30
2018-12-16T09:35:11.727Z,17.23
2018-12-16T09:40:14.070Z,18.80
2018-12-16T09:45:17.294Z,16.70
2018-12-16T09:50:20.202Z,18.80
2018-12-16T09:55:23.411Z,21.23
2018-12-16T10:00:26.713Z,20.10
2018-12-16T10:05:30.093Z,20.73
2018-12-16T10:10:33.322Z,19.00
2018-12-16T10:15:36.568Z,21.27
2018-12-16T10:20:39.796Z,20.20
2018-12-16T10:25:43.010Z,20.10
2018-12-16T10:30:46.251Z,22.30
2018-12-16T10:35:53.231Z,20.07
2018-12-16T10:40:56.465Z,20.33
2018-12-16T10:45:59.691Z,19.83
2018-12-16T10:51:02.900Z,20.63
2018-12-16T11:01:14.135Z,18.67
2018-12-16T11:06:17.450Z,20.40
2018-12-16T11:11:20.866Z,18.17
2018-12-16T11:16:24.090Z,18.83
2018-12-16T11:21:27.363Z,18.60
2018-12-16T11:26:30.574Z,17.57
2018-12-16T11:31:33.814Z,17.13
2018-12-16T11:36:37.059Z,17.50
2018-12-16T11:41:40.274Z,19.23
2018-12-16T11:46:43.573Z,17.60
2018-12-16T11:51:47.047Z,17.30
2018-12-16T11:56:50.281Z,16.67
2018-12-16T12:01:53.525Z,16.40
2018-12-16T12:06:56.746Z,16.43
2018-12-16T12:12:00.554Z,16.63
2018-12-16T12:17:03.886Z,16.70
2018-12-16T12:22:07.264Z,16.50
2018-12-16T12:27:10.478Z,16.53
2018-12-16T12:32:13.730Z,17.43
2018-12-16T12:37:16.975Z,16.20
2018-12-16T12:42:20.221Z,17.20
2018-12-16T12:47:23.450Z,16.17
2018-12-16T12:52:26.674Z,16.70
2018-12-16T12:57:29.906Z,21.10
2018-12-16T13:02:33.155Z,16.73
2018-12-16T13:07:36.395Z,15.23
2018-12-16T13:12:39.616Z,17.10
2018-12-16T13:17:42.855Z,17.47
2018-12-16T13:22:46.067Z,15.97
2018-12-16T13:27:49.382Z,17.00
2018-12-16T13:32:52.634Z,18.63
2018-12-16T13:37:55.851Z,15.13
2018-12-16T13:42:59.074Z,16.33
2018-12-16T13:48:02.381Z,15.70
2018-12-16T13:53:05.686Z,13.97
2018-12-16T13:58:08.922Z,15.07
2018-12-16T14:03:12.211Z,17.27
2018-12-16T14:08:15.449Z,16.90
2018-12-16T14:13:18.678Z,18.63
2018-12-16T14:18:21.920Z,18.53
2018-12-16T14:23:25.130Z,17.50
2018-12-16T14:28:28.410Z,16.40
2018-12-16T14:33:31.995Z,16.20
2018-12-16T14:38:35.299Z,15.97
2018-12-16T14:43:38.494Z,16.17
2018-12-16T14:48:41.735Z,16.83
2018-12-16T14:53:45.150Z,17.37
2018-12-16T14:58:48.389Z,16.70
2018-12-16T15:03:51.627Z,15.17
2018-12-16T15:08:54.881Z,15.13
2018-12-16T15:13:58.095Z,14.50
2018-12-16T15:19:01.372Z,15.30
2018-12-16T15:24:04.659Z,16.70
2018-12-16T15:29:07.874Z,18.60
2018-12-16T15:34:11.091Z,16.00
2018-12-16T15:39:14.318Z,14.87
2018-12-16T15:44:17.571Z,15.77
2018-12-16T15:49:20.790Z,14.83
2018-12-16T15:54:24.052Z,14.30
2018-12-16T15:59:27.334Z,13.80
2018-12-16T16:04:30.107Z,14.43
2018-12-16T16:09:33.342Z,13.90
2018-12-16T16:14:36.558Z,14.47
2018-12-16T16:19:39.781Z,14.43
2018-12-16T16:24:43.000Z,13.87
2018-12-16T16:29:46.222Z,13.20
2018-12-16T16:34:49.447Z,15.27
2018-12-16T16:39:52.697Z,14.73
2018-12-16T16:44:55.970Z,14.37
2018-12-16T16:49:58.826Z,12.80
2018-12-16T16:55:02.154Z,12.60
2018-12-16T17:00:06.631Z,15.67
2018-12-16T17:05:09.989Z,13.03
2018-12-16T17:10:13.378Z,12.53
2018-12-16T17:15:16.675Z,14.50
2018-12-16T17:20:20.045Z,13.37
2018-12-16T17:25:23.257Z,12.27
2018-12-16T17:30:26.498Z,11.80
2018-12-16T17:35:29.708Z,11.83
2018-12-16T17:40:33.006Z,13.67
2018-12-16T17:45:36.238Z,12.60
2018-12-16T17:50:39.547Z,12.27
2018-12-16T17:55:42.840Z,12.10
2018-12-16T18:00:46.233Z,13.40
2018-12-16T18:05:49.442Z,12.63
2018-12-16T18:10:52.746Z,11.50
2018-12-16T18:15:55.962Z,13.00
2018-12-16T18:20:59.172Z,13.23
2018-12-16T18:26:02.430Z,11.90
2018-12-16T18:31:05.753Z,12.53
2018-12-16T18:36:09.050Z,13.00
2018-12-16T18:41:12.338Z,11.63
2018-12-16T18:46:15.552Z,11.23
2018-12-16T18:51:18.956Z,10.73
2018-12-16T18:56:22.162Z,14.00
2018-12-16T19:01:25.449Z,11.07
2018-12-16T19:06:28.661Z,11.17
2018-12-16T19:11:31.878Z,10.60
2018-12-16T19:16:35.166Z,12.90
2018-12-16T19:21:38.458Z,11.60
2018-12-16T19:26:41.802Z,10.27
2018-12-16T19:31:45.019Z,12.37
2018-12-16T19:36:48.362Z,13.27
2018-12-16T19:41:51.593Z,11.50
2018-12-16T19:46:54.827Z,12.10
2018-12-16T19:51:58.758Z,11.00
2018-12-16T19:57:05.230Z,11.53
2018-12-16T20:02:07.861Z,10.90
2018-12-16T20:07:11.150Z,10.90
2018-12-16T20:12:14.354Z,12.70
2018-12-16T20:17:19.271Z,13.57
2018-12-16T20:22:22.641Z,11.30
2018-12-16T20:27:25.869Z,15.00
2018-12-16T20:32:29.294Z,13.70
2018-12-16T20:37:32.782Z,12.67
2018-12-16T20:42:35.989Z,13.23
2018-12-16T20:47:39.206Z,14.27
2018-12-16T20:52:42.434Z,13.27
2018-12-16T20:57:45.635Z,13.27
2018-12-16T21:02:48.864Z,12.20
2018-12-16T21:07:52.265Z,13.67
2018-12-16T21:13:00.999Z,13.53
2018-12-16T21:18:09.743Z,12.80
2018-12-16T21:23:13.158Z,12.93
2018-12-16T21:28:16.362Z,12.27
2018-12-16T21:33:19.687Z,12.20
2018-12-16T21:38:22.903Z,13.47
2018-12-16T21:43:26.129Z,12.63
2018-12-16T21:48:29.375Z,12.40
2018-12-16T21:53:32.607Z,13.10
2018-12-16T21:58:35.837Z,14.10
2018-12-16T22:03:39.089Z,14.67
2018-12-16T22:08:42.304Z,13.30
2018-12-16T22:13:46.149Z,13.23
2018-12-16T22:18:49.398Z,13.17
2018-12-16T22:23:52.616Z,12.90
2018-12-16T22:28:55.902Z,12.37
2018-12-16T22:33:59.167Z,15.07
2018-12-16T22:39:02.395Z,14.10
2018-12-16T22:44:05.598Z,12.87
2018-12-16T22:49:08.904Z,12.43
2018-12-16T22:54:12.214Z,12.67
2018-12-16T22:59:15.440Z,13.20
2018-12-16T23:04:18.673Z,11.73
2018-12-16T23:09:21.906Z,12.07
2018-12-16T23:14:25.116Z,12.70
2018-12-16T23:19:28.364Z,11.63
2018-12-16T23:24:31.790Z,11.37
2018-12-16T23:29:34.991Z,12.77
2018-12-16T23:34:38.223Z,12.10
2018-12-16T23:39:41.458Z,10.70
2018-12-16T23:44:44.683Z,12.80
2018-12-16T23:49:47.993Z,11.60
2018-12-16T23:54:51.201Z,11.47
2018-12-16T23:59:54.609Z,11.10
